sensor_id;sensor_type;location;lat;lon;timestamp;pressure;altitude;pressure_sealevel;temperature;humidity
17311;BME280;8773;43.300;0.394;2022-08-14T00:02:13;99048.97;;;22.53;100.00
17311;BME280;8773;43.300;0.394;2022-08-14T00:04:43;99046.19;;;22.62;100.00
17311;BME280;8773;43.300;0.394;2022-08-14T00:07:12;99045.94;;;22.74;100.00
17311;BME280;8773;43.300;0.394;2022-08-14T00:09:40;99044.06;;;22.79;100.00
17311;BME280;8773;43.300;0.394;2022-08-14T00:12:29;99036.19;;;22.73;100.00
17311;BME280;8773;43.300;0.394;2022-08-14T00:15:07;99041.56;;;22.70;100.00
17311;BME280;8773;43.300;0.394;2022-08-14T00:17:36;99039.28;;;22.50;100.00
17311;BME280;8773;43.300;0.394;2022-08-14T00:20:16;99046.34;;;22.51;100.00
17311;BME280;8773;43.300;0.394;2022-08-14T00:22:50;99040.25;;;22.46;100.00
17311;BME280;8773;43.300;0.394;2022-08-14T00:25:24;99041.13;;;22.45;100.00
17311;BME280;8773;43.300;0.394;2022-08-14T00:28:08;99042.78;;;22.51;100.00
17311;BME280;8773;43.300;0.394;2022-08-14T00:30:44;99049.16;;;22.44;100.00
17311;BME280;8773;43.300;0.394;2022-08-14T00:33:13;99047.31;;;22.46;100.00
17311;BME280;8773;43.300;0.394;2022-08-14T00:35:44;99043.38;;;22.70;100.00
17311;BME280;8773;43.300;0.394;2022-08-14T00:38:32;99039.19;;;22.56;100.00
17311;BME280;8773;43.300;0.394;2022-08-14T00:41:02;99030.72;;;22.34;100.00
17311;BME280;8773;43.300;0.394;2022-08-14T00:43:30;99045.44;;;22.52;100.00
17311;BME280;8773;43.300;0.394;2022-08-14T00:46:02;99041.66;;;22.67;100.00
17311;BME280;8773;43.300;0.394;2022-08-14T00:48:33;99044.38;;;22.64;100.00
17311;BME280;8773;43.300;0.394;2022-08-14T00:51:08;99044.31;;;22.67;100.00
17311;BME280;8773;43.300;0.394;2022-08-14T00:53:38;99048.63;;;22.73;100.00
17311;BME280;8773;43.300;0.394;2022-08-14T00:56:09;99046.25;;;22.56;100.00
17311;BME280;8773;43.300;0.394;2022-08-14T00:58:41;99048.19;;;22.48;100.00
17311;BME280;8773;43.300;0.394;2022-08-14T01:01:14;99047.25;;;22.50;100.00
17311;BME280;8773;43.300;0.394;2022-08-14T01:03:44;99044.72;;;22.43;100.00
17311;BME280;8773;43.300;0.394;2022-08-14T01:06:20;99049.78;;;22.60;100.00
17311;BME280;8773;43.300;0.394;2022-08-14T01:08:55;99050.09;;;22.41;100.00
17311;BME280;8773;43.300;0.394;2022-08-14T01:11:26;99048.31;;;22.42;100.00
17311;BME280;8773;43.300;0.394;2022-08-14T01:14:01;99049.84;;;22.53;100.00
17311;BME280;8773;43.300;0.394;2022-08-14T01:16:49;99054.22;;;22.56;100.00
17311;BME280;8773;43.300;0.394;2022-08-14T01:19:21;99053.50;;;22.48;100.00
17311;BME280;8773;43.300;0.394;2022-08-14T01:22:09;99051.25;;;22.25;100.00
17311;BME280;8773;43.300;0.394;2022-08-14T01:24:40;99054.00;;;22.20;100.00
17311;BME280;8773;43.300;0.394;2022-08-14T01:27:13;99042.22;;;22.35;100.00
17311;BME280;8773;43.300;0.394;2022-08-14T01:29:44;99049.63;;;22.16;100.00
17311;BME280;8773;43.300;0.394;2022-08-14T01:32:30;99051.53;;;22.09;100.00
17311;BME280;8773;43.300;0.394;2022-08-14T01:35:04;99049.63;;;22.18;100.00
17311;BME280;8773;43.300;0.394;2022-08-14T01:37:56;99056.66;;;22.19;100.00
17311;BME280;8773;43.300;0.394;2022-08-14T01:40:26;99046.75;;;22.28;100.00
17311;BME280;8773;43.300;0.394;2022-08-14T01:43:09;99049.53;;;22.24;100.00
17311;BME280;8773;43.300;0.394;2022-08-14T01:45:47;99047.50;;;22.36;100.00
17311;BME280;8773;43.300;0.394;2022-08-14T01:48:32;99049.41;;;22.30;100.00
17311;BME280;8773;43.300;0.394;2022-08-14T01:51:04;99058.22;;;22.32;100.00
17311;BME280;8773;43.300;0.394;2022-08-14T01:53:49;99045.97;;;22.23;100.00
17311;BME280;8773;43.300;0.394;2022-08-14T01:56:24;99047.63;;;22.30;100.00
17311;BME280;8773;43.300;0.394;2022-08-14T01:59:06;99050.91;;;22.45;100.00
17311;BME280;8773;43.300;0.394;2022-08-14T02:01:40;99046.53;;;22.41;100.00
17311;BME280;8773;43.300;0.394;2022-08-14T02:04:28;99049.47;;;22.25;100.00
17311;BME280;8773;43.300;0.394;2022-08-14T02:07:17;99042.22;;;22.35;100.00
17311;BME280;8773;43.300;0.394;2022-08-14T02:10:08;99051.00;;;22.38;100.00
17311;BME280;8773;43.300;0.394;2022-08-14T02:12:41;99050.22;;;22.33;100.00
17311;BME280;8773;43.300;0.394;2022-08-14T02:15:14;99055.28;;;22.47;100.00
17311;BME280;8773;43.300;0.394;2022-08-14T02:17:47;99058.94;;;22.40;100.00
17311;BME280;8773;43.300;0.394;2022-08-14T02:20:15;99062.47;;;22.41;100.00
17311;BME280;8773;43.300;0.394;2022-08-14T02:22:49;99061.59;;;22.42;100.00
17311;BME280;8773;43.300;0.394;2022-08-14T02:25:22;99065.28;;;22.33;100.00
17311;BME280;8773;43.300;0.394;2022-08-14T02:27:55;99066.06;;;22.40;100.00
17311;BME280;8773;43.300;0.394;2022-08-14T02:30:43;99065.84;;;22.50;100.00
17311;BME280;8773;43.300;0.394;2022-08-14T02:33:11;99068.44;;;22.53;100.00
17311;BME280;8773;43.300;0.394;2022-08-14T02:35:42;99055.28;;;22.46;100.00
17311;BME280;8773;43.300;0.394;2022-08-14T02:38:19;99060.16;;;22.24;100.00
17311;BME280;8773;43.300;0.394;2022-08-14T02:41:01;99065.75;;;22.05;100.00
17311;BME280;8773;43.300;0.394;2022-08-14T02:43:37;99060.81;;;21.82;100.00
17311;BME280;8773;43.300;0.394;2022-08-14T02:46:14;99058.78;;;21.98;100.00
17311;BME280;8773;43.300;0.394;2022-08-14T02:48:50;99058.72;;;22.04;100.00
17311;BME280;8773;43.300;0.394;2022-08-14T02:51:32;99051.41;;;22.17;100.00
17311;BME280;8773;43.300;0.394;2022-08-14T02:54:00;99049.53;;;22.24;100.00
17311;BME280;8773;43.300;0.394;2022-08-14T02:56:32;99046.63;;;22.36;100.00
17311;BME280;8773;43.300;0.394;2022-08-14T02:59:25;99053.72;;;22.35;100.00
17311;BME280;8773;43.300;0.394;2022-08-14T03:01:59;99058.16;;;22.36;100.00
17311;BME280;8773;43.300;0.394;2022-08-14T03:04:28;99067.72;;;22.45;100.00
17311;BME280;8773;43.300;0.394;2022-08-14T03:06:57;99070.09;;;22.64;100.00
17311;BME280;8773;43.300;0.394;2022-08-14T03:09:34;99065.75;;;22.55;100.00
17311;BME280;8773;43.300;0.394;2022-08-14T03:12:23;99060.53;;;22.50;100.00
17311;BME280;8773;43.300;0.394;2022-08-14T03:14:58;99059.53;;;22.57;100.00
17311;BME280;8773;43.300;0.394;2022-08-14T03:17:31;99053.66;;;22.38;100.00
17311;BME280;8773;43.300;0.394;2022-08-14T03:20:19;99048.19;;;22.48;100.00
17311;BME280;8773;43.300;0.394;2022-08-14T03:22:48;99053.22;;;22.63;100.00
17311;BME280;8773;43.300;0.394;2022-08-14T03:25:17;99050.63;;;22.60;100.00
17311;BME280;8773;43.300;0.394;2022-08-14T03:27:49;99056.94;;;22.53;100.00
17311;BME280;8773;43.300;0.394;2022-08-14T03:30:25;99046.53;;;22.42;100.00
17311;BME280;8773;43.300;0.394;2022-08-14T03:33:08;99044.09;;;22.28;100.00
17311;BME280;8773;43.300;0.394;2022-08-14T03:35:38;99052.75;;;22.41;100.00
17311;BME280;8773;43.300;0.394;2022-08-14T03:38:26;99066.00;;;22.43;100.00
17311;BME280;8773;43.300;0.394;2022-08-14T03:41:17;99050.19;;;22.36;100.00
17311;BME280;8773;43.300;0.394;2022-08-14T03:43:52;99048.94;;;22.54;100.00
17311;BME280;8773;43.300;0.394;2022-08-14T03:46:28;99053.34;;;22.55;100.00
17311;BME280;8773;43.300;0.394;2022-08-14T03:49:20;99051.06;;;22.35;100.00
17311;BME280;8773;43.300;0.394;2022-08-14T03:51:54;99056.19;;;22.46;100.00
17311;BME280;8773;43.300;0.394;2022-08-14T03:54:24;99059.03;;;22.35;100.00
17311;BME280;8773;43.300;0.394;2022-08-14T03:56:52;99058.94;;;22.40;100.00
17311;BME280;8773;43.300;0.394;2022-08-14T03:59:22;99047.97;;;22.60;100.00
17311;BME280;8773;43.300;0.394;2022-08-14T04:01:54;99053.16;;;22.68;100.00
17311;BME280;8773;43.300;0.394;2022-08-14T04:04:27;99057.50;;;22.72;100.00
17311;BME280;8773;43.300;0.394;2022-08-14T04:06:56;99055.75;;;22.71;100.00
17311;BME280;8773;43.300;0.394;2022-08-14T04:09:25;99053.19;;;22.66;100.00
17311;BME280;8773;43.300;0.394;2022-08-14T04:11:53;99046.97;;;22.67;100.00
17311;BME280;8773;43.300;0.394;2022-08-14T04:14:23;99045.06;;;22.74;100.00
17311;BME280;8773;43.300;0.394;2022-08-14T04:16:51;99042.50;;;22.68;100.00
17311;BME280;8773;43.300;0.394;2022-08-14T04:19:20;99042.72;;;22.57;100.00
17311;BME280;8773;43.300;0.394;2022-08-14T04:21:50;99041.78;;;22.60;100.00
17311;BME280;8773;43.300;0.394;2022-08-14T04:24:29;99038.31;;;22.54;100.00
17311;BME280;8773;43.300;0.394;2022-08-14T04:27:04;99032.16;;;22.52;100.00
17311;BME280;8773;43.300;0.394;2022-08-14T04:29:37;99025.09;;;22.51;100.00
17311;BME280;8773;43.300;0.394;2022-08-14T04:32:11;99024.09;;;22.55;100.00
17311;BME280;8773;43.300;0.394;2022-08-14T04:35:01;99022.22;;;22.64;100.00
17311;BME280;8773;43.300;0.394;2022-08-14T04:37:36;99027.69;;;22.54;100.00
17311;BME280;8773;43.300;0.394;2022-08-14T04:40:22;99014.69;;;22.39;100.00
17311;BME280;8773;43.300;0.394;2022-08-14T04:43:07;99007.44;;;22.49;100.00
17311;BME280;8773;43.300;0.394;2022-08-14T04:46:07;99024.09;;;22.55;100.00
17311;BME280;8773;43.300;0.394;2022-08-14T04:48:55;99017.88;;;22.58;100.00
17311;BME280;8773;43.300;0.394;2022-08-14T04:51:25;99033.22;;;22.42;100.00
17311;BME280;8773;43.300;0.394;2022-08-14T04:54:12;99025.19;;;22.47;100.00
17311;BME280;8773;43.300;0.394;2022-08-14T04:56:42;99021.75;;;22.40;100.00
17311;BME280;8773;43.300;0.394;2022-08-14T04:59:11;99020.81;;;22.44;100.00
17311;BME280;8773;43.300;0.394;2022-08-14T05:01:41;99010.84;;;22.57;100.00
17311;BME280;8773;43.300;0.394;2022-08-14T05:04:17;99021.22;;;22.69;100.00
17311;BME280;8773;43.300;0.394;2022-08-14T05:06:48;99011.53;;;22.67;100.00
17311;BME280;8773;43.300;0.394;2022-08-14T05:09:20;99015.94;;;22.68;100.00
17311;BME280;8773;43.300;0.394;2022-08-14T05:11:48;99018.56;;;22.69;100.00
17311;BME280;8773;43.300;0.394;2022-08-14T05:14:17;99023.53;;;22.41;100.00
17311;BME280;8773;43.300;0.394;2022-08-14T05:17:09;99010.09;;;22.47;100.00
17311;BME280;8773;43.300;0.394;2022-08-14T05:19:37;99010.84;;;22.57;100.00
17311;BME280;8773;43.300;0.394;2022-08-14T05:22:25;99013.44;;;22.60;100.00
17311;BME280;8773;43.300;0.394;2022-08-14T05:24:54;99011.59;;;22.64;100.00
17311;BME280;8773;43.300;0.394;2022-08-14T05:27:22;99015.06;;;22.66;100.00
17311;BME280;8773;43.300;0.394;2022-08-14T05:29:51;99018.44;;;22.75;100.00
17311;BME280;8773;43.300;0.394;2022-08-14T05:32:24;99013.63;;;22.49;100.00
17311;BME280;8773;43.300;0.394;2022-08-14T05:34:55;99008.22;;;22.52;100.00
17311;BME280;8773;43.300;0.394;2022-08-14T05:37:24;99012.50;;;22.63;100.00
17311;BME280;8773;43.300;0.394;2022-08-14T05:39:55;99007.22;;;22.61;100.00
17311;BME280;8773;43.300;0.394;2022-08-14T05:42:24;99005.47;;;22.58;100.00
17311;BME280;8773;43.300;0.394;2022-08-14T05:44:58;99001.69;;;22.72;100.00
17311;BME280;8773;43.300;0.394;2022-08-14T05:47:27;99000.81;;;22.71;100.00
17311;BME280;8773;43.300;0.394;2022-08-14T05:50:07;98997.31;;;22.68;100.00
17311;BME280;8773;43.300;0.394;2022-08-14T05:52:46;99003.66;;;22.61;100.00
17311;BME280;8773;43.300;0.394;2022-08-14T05:55:15;99006.91;;;22.75;100.00
17311;BME280;8773;43.300;0.394;2022-08-14T05:57:51;99006.91;;;22.75;100.00
17311;BME280;8773;43.300;0.394;2022-08-14T06:00:22;99015.59;;;22.85;100.00
17311;BME280;8773;43.300;0.394;2022-08-14T06:02:56;99025.44;;;22.79;100.00
17311;BME280;8773;43.300;0.394;2022-08-14T06:05:26;99024.03;;;22.62;100.00
17311;BME280;8773;43.300;0.394;2022-08-14T06:07:56;99026.78;;;22.57;100.00
17311;BME280;8773;43.300;0.394;2022-08-14T06:10:25;99023.03;;;22.67;100.00
17311;BME280;8773;43.300;0.394;2022-08-14T06:12:55;99020.28;;;22.72;100.00
17311;BME280;8773;43.300;0.394;2022-08-14T06:15:24;99022.03;;;22.73;100.00
17311;BME280;8773;43.300;0.394;2022-08-14T06:17:58;99015.78;;;22.75;100.00
17311;BME280;8773;43.300;0.394;2022-08-14T06:20:28;99014.41;;;22.54;100.00
17311;BME280;8773;43.300;0.394;2022-08-14T06:23:00;99007.31;;;22.53;100.00
17311;BME280;8773;43.300;0.394;2022-08-14T06:25:29;99010.88;;;22.54;100.00
17311;BME280;8773;43.300;0.394;2022-08-14T06:27:58;99008.16;;;22.55;100.00
17311;BME280;8773;43.300;0.394;2022-08-14T06:30:32;99017.31;;;22.41;100.00
17311;BME280;8773;43.300;0.394;2022-08-14T06:33:15;99011.06;;;22.43;100.00
17311;BME280;8773;43.300;0.394;2022-08-14T06:35:44;99011.59;;;22.64;100.00
17311;BME280;8773;43.300;0.394;2022-08-14T06:38:16;99013.31;;;22.66;100.00
17311;BME280;8773;43.300;0.394;2022-08-14T06:40:48;99015.91;;;22.69;100.00
17311;BME280;8773;43.300;0.394;2022-08-14T06:43:17;99009.59;;;22.73;100.00
17311;BME280;8773;43.300;0.394;2022-08-14T06:45:48;99014.56;;;22.90;100.00
17311;BME280;8773;43.300;0.394;2022-08-14T06:48:22;99019.03;;;22.90;100.00
17311;BME280;8773;43.300;0.394;2022-08-14T06:50:52;99017.44;;;22.81;100.00
17311;BME280;8773;43.300;0.394;2022-08-14T06:53:23;99026.53;;;22.69;100.00
17311;BME280;8773;43.300;0.394;2022-08-14T06:55:54;99021.19;;;22.71;100.00
17311;BME280;8773;43.300;0.394;2022-08-14T06:58:28;99024.56;;;22.79;100.00
17311;BME280;8773;43.300;0.394;2022-08-14T07:00:58;99021.06;;;22.77;100.00
17311;BME280;8773;43.300;0.394;2022-08-14T07:03:55;99029.06;;;22.75;100.00
17311;BME280;8773;43.300;0.394;2022-08-14T07:06:50;99020.19;;;22.76;100.00
17311;BME280;8773;43.300;0.394;2022-08-14T07:09:21;99027.16;;;22.82;100.00
17311;BME280;8773;43.300;0.394;2022-08-14T07:11:49;99033.91;;;22.98;100.00
17311;BME280;8773;43.300;0.394;2022-08-14T07:14:17;99028.56;;;22.98;100.00
17311;BME280;8773;43.300;0.394;2022-08-14T07:16:45;99041.06;;;22.96;100.00
17311;BME280;8773;43.300;0.394;2022-08-14T07:19:17;99041.41;;;22.79;100.00
17311;BME280;8773;43.300;0.394;2022-08-14T07:21:46;99032.47;;;22.84;100.00
17311;BME280;8773;43.300;0.394;2022-08-14T07:24:16;99041.06;;;22.96;100.00
17311;BME280;8773;43.300;0.394;2022-08-14T07:26:57;99041.00;;;22.99;100.00
17311;BME280;8773;43.300;0.394;2022-08-14T07:29:25;99044.19;;;23.15;100.00
17311;BME280;8773;43.300;0.394;2022-08-14T07:31:57;99038.00;;;23.15;100.00
17311;BME280;8773;43.300;0.394;2022-08-14T07:34:26;99040.63;;;23.16;100.00
17311;BME280;8773;43.300;0.394;2022-08-14T07:37:07;99047.00;;;23.08;100.00
17311;BME280;8773;43.300;0.394;2022-08-14T07:39:35;99041.50;;;23.17;100.00
17311;BME280;8773;43.300;0.394;2022-08-14T07:42:05;99041.75;;;23.05;100.00
17311;BME280;8773;43.300;0.394;2022-08-14T07:44:46;99043.84;;;23.32;100.00
17311;BME280;8773;43.300;0.394;2022-08-14T07:47:16;99042.53;;;23.52;100.00
17311;BME280;8773;43.300;0.394;2022-08-14T07:49:53;99051.31;;;23.13;100.00
17311;BME280;8773;43.300;0.394;2022-08-14T07:52:27;99045.84;;;23.21;100.00
17311;BME280;8773;43.300;0.394;2022-08-14T07:54:56;99046.06;;;23.10;100.00
17311;BME280;8773;43.300;0.394;2022-08-14T07:57:24;99054.81;;;23.15;100.00
17311;BME280;8773;43.300;0.394;2022-08-14T07:59:53;99053.88;;;23.18;100.00
17311;BME280;8773;43.300;0.394;2022-08-14T08:02:21;99062.47;;;23.32;100.00
17311;BME280;8773;43.300;0.394;2022-08-14T08:04:54;99056.97;;;23.41;100.00
17311;BME280;8773;43.300;0.394;2022-08-14T08:07:27;99057.09;;;23.35;100.00
17311;BME280;8773;43.300;0.394;2022-08-14T08:09:58;99060.91;;;23.20;100.00
17311;BME280;8773;43.300;0.394;2022-08-14T08:12:28;99064.16;;;22.93;100.00
17311;BME280;8773;43.300;0.394;2022-08-14T08:14:59;99065.31;;;22.79;100.00
17311;BME280;8773;43.300;0.394;2022-08-14T08:17:34;99066.13;;;22.83;100.00
17311;BME280;8773;43.300;0.394;2022-08-14T08:20:17;99072.38;;;23.24;100.00
17311;BME280;8773;43.300;0.394;2022-08-14T08:22:46;99074.81;;;23.36;100.00
17311;BME280;8773;43.300;0.394;2022-08-14T08:25:22;99073.47;;;23.56;100.00
17311;BME280;8773;43.300;0.394;2022-08-14T08:27:54;99076.94;;;23.61;100.00
17311;BME280;8773;43.300;0.394;2022-08-14T08:30:24;99074.72;;;23.41;100.00
17311;BME280;8773;43.300;0.394;2022-08-14T08:32:55;99071.47;;;23.65;100.00
17311;BME280;8773;43.300;0.394;2022-08-14T08:35:27;99074.03;;;23.70;100.00
17311;BME280;8773;43.300;0.394;2022-08-14T08:38:17;99077.03;;;23.95;100.00
17311;BME280;8773;43.300;0.394;2022-08-14T08:41:06;99080.88;;;24.19;100.00
17311;BME280;8773;43.300;0.394;2022-08-14T08:43:38;99087.19;;;24.15;100.00
17311;BME280;8773;43.300;0.394;2022-08-14T08:46:14;99092.41;;;24.20;100.00
17311;BME280;8773;43.300;0.394;2022-08-14T08:48:50;99087.41;;;24.42;100.00
17311;BME280;8773;43.300;0.394;2022-08-14T08:51:22;99089.72;;;24.20;100.00
17311;BME280;8773;43.300;0.394;2022-08-14T08:54:01;99095.25;;;24.12;100.00
17311;BME280;8773;43.300;0.394;2022-08-14T08:56:38;99099.06;;;24.02;100.00
17311;BME280;8773;43.300;0.394;2022-08-14T08:59:19;99101.91;;;23.94;100.00
17311;BME280;8773;43.300;0.394;2022-08-14T09:01:58;99102.22;;;23.41;100.00
17311;BME280;8773;43.300;0.394;2022-08-14T09:04:34;99093.03;;;23.55;100.00
17311;BME280;8773;43.300;0.394;2022-08-14T09:07:25;99091.63;;;23.77;100.00
17311;BME280;8773;43.300;0.394;2022-08-14T09:09:54;99098.56;;;23.84;100.00
17311;BME280;8773;43.300;0.394;2022-08-14T09:12:26;99091.34;;;24.25;100.00
17311;BME280;8773;43.300;0.394;2022-08-14T09:14:59;99094.22;;;24.52;100.00
17311;BME280;8773;43.300;0.394;2022-08-14T09:17:28;99092.31;;;24.59;100.00
17311;BME280;8773;43.300;0.394;2022-08-14T09:19:56;99091.53;;;24.54;100.00
17311;BME280;8773;43.300;0.394;2022-08-14T09:22:31;99093.94;;;25.28;100.00
17311;BME280;8773;43.300;0.394;2022-08-14T09:25:04;99096.16;;;25.44;100.00
17311;BME280;8773;43.300;0.394;2022-08-14T09:27:33;99103.44;;;25.67;100.00
17311;BME280;8773;43.300;0.394;2022-08-14T09:30:03;99102.47;;;25.99;100.00
17311;BME280;8773;43.300;0.394;2022-08-14T09:33:03;99094.13;;;25.80;100.00
17311;BME280;8773;43.300;0.394;2022-08-14T09:35:48;99100.03;;;26.18;100.00
17311;BME280;8773;43.300;0.394;2022-08-14T09:38:30;99098.63;;;26.33;100.00
17311;BME280;8773;43.300;0.394;2022-08-14T09:41:09;99103.91;;;26.09;100.00
17311;BME280;8773;43.300;0.394;2022-08-14T09:43:47;99102.63;;;26.21;100.00
17311;BME280;8773;43.300;0.394;2022-08-14T09:46:20;99106.75;;;25.75;100.00
17311;BME280;8773;43.300;0.394;2022-08-14T09:48:57;99097.81;;;25.76;100.00
17311;BME280;8773;43.300;0.394;2022-08-14T09:51:35;99107.97;;;25.35;100.00
17311;BME280;8773;43.300;0.394;2022-08-14T09:54:35;99100.50;;;25.15;100.00
17311;BME280;8773;43.300;0.394;2022-08-14T09:57:04;99095.44;;;25.37;100.00
17311;BME280;8773;43.300;0.394;2022-08-14T09:59:42;99090.56;;;25.22;100.00
17311;BME280;8773;43.300;0.394;2022-08-14T10:02:18;99090.94;;;25.69;100.00
17311;BME280;8773;43.300;0.394;2022-08-14T10:04:58;99091.25;;;26.41;100.00
17311;BME280;8773;43.300;0.394;2022-08-14T10:07:31;99085.09;;;26.39;100.00
17311;BME280;8773;43.300;0.394;2022-08-14T10:10:03;99078.41;;;26.52;100.00
17311;BME280;8773;43.300;0.394;2022-08-14T10:12:49;99079.25;;;26.78;100.00
17311;BME280;8773;43.300;0.394;2022-08-14T10:15:26;99078.44;;;27.01;100.00
17311;BME280;8773;43.300;0.394;2022-08-14T10:18:04;99092.56;;;26.81;100.00
17311;BME280;8773;43.300;0.394;2022-08-14T10:20:36;99092.06;;;26.43;100.00
17311;BME280;8773;43.300;0.394;2022-08-14T10:23:18;99096.38;;;26.20;100.00
17311;BME280;8773;43.300;0.394;2022-08-14T10:25:52;99108.97;;;25.61;100.00
17311;BME280;8773;43.300;0.394;2022-08-14T10:28:22;99098.38;;;24.97;100.00
17311;BME280;8773;43.300;0.394;2022-08-14T10:31:21;99104.69;;;24.61;100.00
17311;BME280;8773;43.300;0.394;2022-08-14T10:34:04;99103.75;;;24.62;100.00
17311;BME280;8773;43.300;0.394;2022-08-14T10:36:41;99097.06;;;24.80;100.00
17311;BME280;8773;43.300;0.394;2022-08-14T10:39:15;99110.25;;;24.85;100.00
17311;BME280;8773;43.300;0.394;2022-08-14T10:41:46;99110.84;;;24.96;100.00
17311;BME280;8773;43.300;0.394;2022-08-14T10:44:22;99100.19;;;25.27;100.00
17311;BME280;8773;43.300;0.394;2022-08-14T10:46:55;99108.59;;;25.73;100.00
17311;BME280;8773;43.300;0.394;2022-08-14T10:49:55;99098.84;;;25.42;100.00
17311;BME280;8773;43.300;0.394;2022-08-14T10:52:27;99097.13;;;25.69;100.00
17311;BME280;8773;43.300;0.394;2022-08-14T10:55:06;99105.28;;;25.65;100.00
17311;BME280;8773;43.300;0.394;2022-08-14T10:57:48;99095.28;;;25.71;100.00
17311;BME280;8773;43.300;0.394;2022-08-14T11:00:20;99098.69;;;25.48;100.00
17311;BME280;8773;43.300;0.394;2022-08-14T11:03:03;99094.09;;;25.21;100.00
17311;BME280;8773;43.300;0.394;2022-08-14T11:05:39;99101.28;;;24.89;100.00
17311;BME280;8773;43.300;0.394;2022-08-14T11:08:08;99103.28;;;24.46;100.00
17311;BME280;8773;43.300;0.394;2022-08-14T11:10:46;99099.31;;;24.28;100.00
17311;BME280;8773;43.300;0.394;2022-08-14T11:13:21;99099.63;;;24.15;100.00
17311;BME280;8773;43.300;0.394;2022-08-14T11:15:50;99088.41;;;24.02;100.00
17311;BME280;8773;43.300;0.394;2022-08-14T11:18:18;99097.81;;;24.17;100.00
17311;BME280;8773;43.300;0.394;2022-08-14T11:21:03;99097.91;;;24.14;100.00
17311;BME280;8773;43.300;0.394;2022-08-14T11:23:36;99089.16;;;24.08;100.00
17311;BME280;8773;43.300;0.394;2022-08-14T11:26:14;99097.53;;;24.27;100.00
17311;BME280;8773;43.300;0.394;2022-08-14T11:28:48;99085.19;;;24.58;100.00
17311;BME280;8773;43.300;0.394;2022-08-14T11:31:19;99082.75;;;24.83;100.00
17311;BME280;8773;43.300;0.394;2022-08-14T11:33:50;99082.06;;;25.07;100.00
17311;BME280;8773;43.300;0.394;2022-08-14T11:36:25;99074.31;;;25.29;100.00
17311;BME280;8773;43.300;0.394;2022-08-14T11:39:18;99080.91;;;25.47;100.00
17311;BME280;8773;43.300;0.394;2022-08-14T11:42:02;99080.88;;;25.77;100.00
17311;BME280;8773;43.300;0.394;2022-08-14T11:44:52;99081.63;;;25.80;100.00
17311;BME280;8773;43.300;0.394;2022-08-14T11:47:26;99082.09;;;25.95;100.00
17311;BME280;8773;43.300;0.394;2022-08-14T11:50:13;99090.38;;;26.14;100.00
17311;BME280;8773;43.300;0.394;2022-08-14T11:52:59;99082.41;;;25.86;100.00
17311;BME280;8773;43.300;0.394;2022-08-14T11:55:33;99084.13;;;25.58;100.00
17311;BME280;8773;43.300;0.394;2022-08-14T11:58:06;99072.16;;;25.42;100.00
17311;BME280;8773;43.300;0.394;2022-08-14T12:00:46;99073.56;;;25.26;100.00
17311;BME280;8773;43.300;0.394;2022-08-14T12:03:15;99064.44;;;25.02;100.00
17311;BME280;8773;43.300;0.394;2022-08-14T12:06:04;99071.94;;;24.89;100.00
17311;BME280;8773;43.300;0.394;2022-08-14T12:08:55;99068.47;;;25.15;100.00
17311;BME280;8773;43.300;0.394;2022-08-14T12:11:37;99067.88;;;25.36;100.00
17311;BME280;8773;43.300;0.394;2022-08-14T12:14:13;99075.81;;;25.68;100.00
17311;BME280;8773;43.300;0.394;2022-08-14T12:17:04;99070.06;;;25.80;100.00
17311;BME280;8773;43.300;0.394;2022-08-14T12:19:46;99072.53;;;25.58;100.00
17311;BME280;8773;43.300;0.394;2022-08-14T12:22:17;99070.94;;;25.52;100.00
17311;BME280;8773;43.300;0.394;2022-08-14T12:24:56;99063.38;;;25.67;100.00
17311;BME280;8773;43.300;0.394;2022-08-14T12:27:34;99062.16;;;25.77;100.00
17311;BME280;8773;43.300;0.394;2022-08-14T12:30:08;99064.88;;;25.75;100.00
17311;BME280;8773;43.300;0.394;2022-08-14T12:32:40;99062.16;;;25.77;100.00
17311;BME280;8773;43.300;0.394;2022-08-14T12:35:10;99056.59;;;25.56;100.00
17311;BME280;8773;43.300;0.394;2022-08-14T12:37:38;99060.03;;;25.30;100.00
17311;BME280;8773;43.300;0.394;2022-08-14T12:40:15;99054.38;;;25.11;100.00
17311;BME280;8773;43.300;0.394;2022-08-14T12:42:46;99045.16;;;25.23;100.00
17311;BME280;8773;43.300;0.394;2022-08-14T12:45:29;99052.59;;;25.10;100.00
17311;BME280;8773;43.300;0.394;2022-08-14T12:48:01;99045.06;;;25.26;100.00
17311;BME280;8773;43.300;0.394;2022-08-14T12:50:50;99040.97;;;25.43;100.00
17311;BME280;8773;43.300;0.394;2022-08-14T12:53:33;99051.63;;;25.44;100.00
17311;BME280;8773;43.300;0.394;2022-08-14T12:56:04;99046.91;;;25.24;100.00
17311;BME280;8773;43.300;0.394;2022-08-14T12:58:55;99038.66;;;25.60;100.00
17311;BME280;8773;43.300;0.394;2022-08-14T13:01:26;99040.06;;;25.72;100.00
17311;BME280;8773;43.300;0.394;2022-08-14T13:04:07;99036.81;;;25.62;100.00
17311;BME280;8773;43.300;0.394;2022-08-14T13:06:38;99040.59;;;25.55;100.00
17311;BME280;8773;43.300;0.394;2022-08-14T13:09:15;99039.31;;;25.68;100.00
17311;BME280;8773;43.300;0.394;2022-08-14T13:11:45;99034.13;;;25.90;100.00
17311;BME280;8773;43.300;0.394;2022-08-14T13:14:24;99028.66;;;26.21;100.00
17311;BME280;8773;43.300;0.394;2022-08-14T13:16:56;99023.06;;;26.54;100.00
17311;BME280;8773;43.300;0.394;2022-08-14T13:19:25;99031.66;;;26.62;100.00
17311;BME280;8773;43.300;0.394;2022-08-14T13:21:54;99028.38;;;26.56;100.00
17311;BME280;8773;43.300;0.394;2022-08-14T13:24:32;99025.97;;;26.48;100.00
17311;BME280;8773;43.300;0.394;2022-08-14T13:27:00;99029.63;;;26.46;100.00
17311;BME280;8773;43.300;0.394;2022-08-14T13:29:37;99027.38;;;26.58;100.00
17311;BME280;8773;43.300;0.394;2022-08-14T13:32:11;99021.81;;;26.38;100.00
17311;BME280;8773;43.300;0.394;2022-08-14T13:34:44;99017.94;;;26.48;100.00
17311;BME280;8773;43.300;0.394;2022-08-14T13:37:18;99011.97;;;26.65;100.00
17311;BME280;8773;43.300;0.394;2022-08-14T13:39:50;99017.78;;;27.00;100.00
17311;BME280;8773;43.300;0.394;2022-08-14T13:42:23;99011.66;;;26.73;100.00
17311;BME280;8773;43.300;0.394;2022-08-14T13:45:02;99019.06;;;26.90;100.00